Time;durP1;ratioP1;P1;durP2;ratioP2;P2;SDS_P1;SDS_P2;PMS_P1;PMS_P2;Temp;Humidity;BMP_temperature;BMP_pressure;BME280_temperature;BME280_humidity;BME280_pressure;Samples;Min_cycle;Max_cycle;Signal;HPM_P1;HPM_P2
2022/06/23 00:00:28;;;;;;;5.47;4.97;;;19.20;99.90;;;;;;2095875;28;20127;-69
2022/06/23 00:01:42;;;;;;;5.65;4.88;;;19.10;99.90;;;;;;2096247;28;20032;-69
2022/06/23 00:02:43;;;;;;;5.72;5.13;;;19.10;99.90;;;;;;2096682;28;20024;-70
2022/06/23 00:03:45;;;;;;;5.95;5.38;;;19.10;99.90;;;;;;2096039;28;20052;-69
2022/06/23 00:04:48;;;;;;;5.80;5.20;;;19.10;99.90;;;;;;2096016;28;20573;-70
2022/06/23 00:05:55;;;;;;;7.65;5.10;;;19.10;99.90;;;;;;2096900;28;20036;-70
2022/06/23 00:07:03;;;;;;;5.88;4.95;;;19.00;99.60;;;;;;2096744;28;20032;-70
2022/06/23 00:08:11;;;;;;;6.40;5.28;;;19.00;99.50;;;;;;2096039;28;20491;-70
2022/06/23 00:09:33;;;;;;;5.97;5.38;;;19.00;99.10;;;;;;2095524;28;20036;-69
2022/06/23 00:10:43;;;;;;;5.88;5.30;;;18.90;98.40;;;;;;2096624;28;20063;-69
2022/06/23 00:11:49;;;;;;;6.78;5.82;;;18.90;98.10;;;;;;2096131;28;20032;-69
2022/06/23 00:12:50;;;;;;;6.82;5.53;;;18.80;97.20;;;;;;2088566;28;20052;-70
2022/06/23 00:14:01;;;;;;;7.40;5.68;;;18.90;96.10;;;;;;2095991;28;20107;-69
2022/06/23 00:15:02;;;;;;;;;;;18.80;95.80;;;;;;2096966;28;20028;-69
2022/06/23 00:16:04;;;;;;;6.93;5.50;;;18.80;94.70;;;;;;2096560;28;19911;-70
2022/06/23 00:17:21;;;;;;;7.55;5.53;;;18.80;94.30;;;;;;2096614;28;20048;-69
2022/06/23 00:18:25;;;;;;;6.65;5.93;;;18.80;93.20;;;;;;2095714;28;20037;-70
2022/06/23 00:19:26;;;;;;;7.88;5.53;;;18.80;92.70;;;;;;2095967;28;20027;-70
2022/06/23 00:20:32;;;;;;;6.57;5.63;;;18.80;92.70;;;;;;2096367;28;20502;-72
2022/06/23 00:21:34;;;;;;;6.10;5.50;;;18.80;92.40;;;;;;2096804;28;20017;-70
2022/06/23 00:22:38;;;;;;;7.57;5.35;;;18.70;92.10;;;;;;2096419;28;20639;-69
2022/06/23 00:23:42;;;;;;;6.15;5.50;;;18.70;92.30;;;;;;2096446;28;20477;-70
2022/06/23 00:24:48;;;;;;;6.30;5.60;;;18.70;91.90;;;;;;2096503;28;20502;-69
2022/06/23 00:26:12;;;;;;;6.97;5.82;;;18.70;91.90;;;;;;2096682;28;20025;-69
2022/06/23 00:27:16;;;;;;;5.93;5.40;;;18.70;91.90;;;;;;2096453;28;20124;-69
2022/06/23 00:28:22;;;;;;;5.97;5.47;;;18.70;92.00;;;;;;2096442;28;20028;-69
2022/06/23 00:29:23;;;;;;;6.32;5.43;;;18.60;91.90;;;;;;2095943;28;20029;-69
2022/06/23 00:30:43;;;;;;;6.25;5.28;;;18.60;91.90;;;;;;2095577;28;20030;-69
2022/06/23 00:31:52;;;;;;;5.90;5.30;;;18.60;91.70;;;;;;2096469;28;20024;-69
2022/06/23 00:32:53;;;;;;;6.30;5.70;;;18.60;91.80;;;;;;2096236;28;20040;-68
2022/06/23 00:33:56;;;;;;;6.25;5.60;;;18.60;91.80;;;;;;2087690;28;20033;-68
2022/06/23 00:35:00;;;;;;;6.88;5.75;;;18.50;91.80;;;;;;2095907;28;20032;-68
2022/06/23 00:36:01;;;;;;;7.20;5.50;;;18.50;91.90;;;;;;2096682;28;20038;-68
2022/06/23 00:37:13;;;;;;;6.35;5.75;;;18.50;92.10;;;;;;2095908;28;20882;-68
2022/06/23 00:38:31;;;;;;;8.07;5.70;;;18.50;93.00;;;;;;2089532;28;20080;-68
2022/06/23 00:39:36;;;;;;;6.65;6.00;;;18.50;94.10;;;;;;2096393;28;20020;-67
2022/06/23 00:40:42;;;;;;;6.72;5.68;;;18.50;94.60;;;;;;2095620;28;20020;-68
2022/06/23 00:41:43;;;;;;;6.47;5.68;;;18.50;95.50;;;;;;2095765;28;20056;-68
2022/06/23 00:43:00;;;;;;;6.60;5.90;;;18.50;97.50;;;;;;2095870;28;20028;-68
2022/06/23 00:44:07;;;;;;;6.97;5.65;;;18.50;98.20;;;;;;2103963;28;20054;-68
2022/06/23 00:45:11;;;;;;;6.40;5.65;;;18.50;98.60;;;;;;2103399;28;20019;-68
2022/06/23 00:46:49;;;;;;;7.50;5.45;;;18.50;99.50;;;;;;2096682;28;20662;-68
2022/06/23 00:48:08;;;;;;;7.18;5.47;;;18.40;99.90;;;;;;2096622;28;20044;-68
2022/06/23 00:49:21;;;;;;;6.57;5.85;;;18.50;99.90;;;;;;2096394;28;20048;-68
2022/06/23 00:50:30;;;;;;;6.07;5.45;;;18.40;99.90;;;;;;2097044;28;20032;-68
2022/06/23 00:51:46;;;;;;;5.80;5.30;;;18.40;99.90;;;;;;2097155;28;20552;-68
2022/06/23 00:53:02;;;;;;;6.47;5.30;;;18.40;99.90;;;;;;2096919;28;20056;-69
2022/06/23 00:54:14;;;;;;;6.13;5.30;;;18.40;99.90;;;;;;2097179;28;20041;-69
2022/06/23 00:55:37;;;;;;;5.68;5.18;;;18.40;99.90;;;;;;2096386;28;20024;-69
2022/06/23 00:57:06;;;;;;;5.70;5.20;;;18.30;99.90;;;;;;2096766;28;20024;-69
2022/06/23 00:58:22;;;;;;;7.75;5.50;;;18.30;99.90;;;;;;2097144;28;20078;-69
2022/06/23 00:59:38;;;;;;;6.53;5.30;;;18.30;99.90;;;;;;2096451;28;20028;-69
2022/06/23 01:00:40;;;;;;;6.97;5.60;;;18.30;99.90;;;;;;2091072;28;20654;-69
2022/06/23 01:01:56;;;;;;;7.25;6.03;;;18.30;99.90;;;;;;2096881;28;20040;-69
2022/06/23 01:03:29;;;;;;;6.43;5.80;;;18.20;99.90;;;;;;2096922;28;20016;-68
2022/06/23 01:04:45;;;;;;;6.57;5.32;;;18.20;99.90;;;;;;2088268;28;20047;-69
2022/06/23 01:05:56;;;;;;;6.45;5.47;;;18.20;99.90;;;;;;2096165;28;20024;-68
2022/06/23 01:07:23;;;;;;;6.60;5.10;;;18.10;99.90;;;;;;2096343;28;20116;-69
2022/06/23 01:08:45;;;;;;;6.13;5.53;;;18.10;99.90;;;;;;2095408;28;20040;-69
2022/06/23 01:09:52;;;;;;;6.15;5.55;;;18.10;99.90;;;;;;2095806;28;20039;-69
2022/06/23 01:11:06;;;;;;;5.43;4.93;;;18.00;99.90;;;;;;2096090;28;20020;-69
2022/06/23 01:12:16;;;;;;;5.57;5.07;;;18.00;99.90;;;;;;2096301;28;20028;-69
2022/06/23 01:13:34;;;;;;;5.80;5.20;;;18.00;99.90;;;;;;2096045;28;20070;-69
2022/06/23 01:14:53;;;;;;;6.57;5.38;;;18.00;99.90;;;;;;2096264;28;20020;-69
2022/06/23 01:16:05;;;;;;;7.75;5.40;;;17.90;99.90;;;;;;2087158;28;20391;-69
2022/06/23 01:17:20;;;;;;;7.15;5.40;;;17.90;99.90;;;;;;2088945;28;20045;-69
2022/06/23 01:18:31;;;;;;;5.63;5.13;;;17.90;99.90;;;;;;2095811;28;20039;-69
2022/06/23 01:19:37;;;;;;;6.15;5.28;;;17.90;99.90;;;;;;2096054;28;20821;-69
2022/06/23 01:21:03;;;;;;;6.25;5.57;;;17.90;99.90;;;;;;2095306;28;20040;-69
2022/06/23 01:22:14;;;;;;;5.95;5.35;;;17.90;99.90;;;;;;2095965;28;20731;-69
2022/06/23 01:23:51;;;;;;;6.32;5.05;;;17.90;99.90;;;;;;2095442;28;20545;-69
2022/06/23 01:25:16;;;;;;;6.35;5.28;;;17.90;99.90;;;;;;2095711;28;20037;-69
2022/06/23 01:26:31;;;;;;;6.93;5.30;;;17.90;99.90;;;;;;2096133;28;20060;-69
2022/06/23 01:27:59;;;;;;;5.70;5.20;;;17.90;99.90;;;;;;2095333;28;20036;-69
2022/06/23 01:29:17;;;;;;;5.68;4.80;;;17.80;99.90;;;;;;2095463;28;20028;-69
2022/06/23 01:30:20;;;;;;;9.80;5.72;;;17.80;99.90;;;;;;2096043;28;20016;-70
2022/06/23 01:31:37;;;;;;;6.07;5.35;;;17.80;99.90;;;;;;2095707;28;20091;-69
2022/06/23 01:32:40;;;;;;;7.53;5.65;;;17.80;99.90;;;;;;2096059;28;20032;-69
2022/06/23 01:33:47;;;;;;;5.97;5.05;;;17.70;99.90;;;;;;2092350;28;20056;-69
2022/06/23 01:35:00;;;;;;;5.72;5.10;;;17.70;99.90;;;;;;2087659;28;20021;-69
2022/06/23 01:36:30;;;;;;;6.78;5.20;;;17.70;99.90;;;;;;2086808;28;20043;-69
2022/06/23 01:37:44;;;;;;;6.75;5.40;;;17.70;99.90;;;;;;2065793;28;20029;-69
2022/06/23 01:38:58;;;;;;;8.38;5.28;;;17.70;99.90;;;;;;2087151;28;20122;-69
2022/06/23 01:40:23;;;;;;;6.13;5.30;;;17.60;99.90;;;;;;2087265;28;20534;-69
2022/06/23 01:41:42;;;;;;;6.53;5.38;;;17.70;99.90;;;;;;2087766;28;20433;-69
2022/06/23 01:43:02;;;;;;;6.43;5.28;;;17.70;99.90;;;;;;2090517;28;20028;-69
2022/06/23 01:44:36;;;;;;;5.65;5.07;;;17.60;99.90;;;;;;2087460;28;20037;-68
2022/06/23 01:45:56;;;;;;;7.47;5.40;;;17.60;99.90;;;;;;2087363;28;20117;-68
2022/06/23 01:46:58;;;;;;;6.80;5.53;;;17.60;99.90;;;;;;2087840;28;20057;-68
2022/06/23 01:48:07;;;;;;;6.03;5.43;;;17.60;99.90;;;;;;2087672;28;20663;-68
2022/06/23 01:49:14;;;;;;;5.95;5.07;;;17.60;99.90;;;;;;2087478;28;20115;-68
2022/06/23 01:50:14;;;;;;;5.93;5.20;;;17.50;99.90;;;;;;2086847;28;20032;-68
2022/06/23 01:51:35;;;;;;;6.13;5.50;;;17.50;99.90;;;;;;2087014;28;20844;-68
2022/06/23 01:52:36;;;;;;;6.68;5.05;;;17.50;99.90;;;;;;2078711;28;20068;-68
2022/06/23 01:53:37;;;;;;;6.00;5.32;;;17.50;99.90;;;;;;2078668;28;20083;-68
2022/06/23 01:54:39;;;;;;;6.00;5.50;;;17.50;99.90;;;;;;2086879;28;20035;-68
2022/06/23 01:56:12;;;;;;;6.50;5.20;;;17.50;99.90;;;;;;2087562;28;20096;-68
2022/06/23 01:57:26;;;;;;;6.68;5.20;;;17.50;99.90;;;;;;2092474;28;20449;-68
2022/06/23 01:58:36;;;;;;;5.85;5.25;;;17.40;99.90;;;;;;2095627;28;20037;-69
2022/06/23 01:59:43;;;;;;;6.30;5.10;;;17.40;99.90;;;;;;2095918;28;20039;-69
2022/06/23 02:00:47;;;;;;;6.28;5.57;;;17.40;99.90;;;;;;2095113;28;20029;-69
2022/06/23 02:01:51;;;;;;;5.88;5.35;;;17.40;99.90;;;;;;2095593;28;20467;-69
2022/06/23 02:03:09;;;;;;;6.25;5.65;;;17.40;99.90;;;;;;2103145;28;20032;-69
2022/06/23 02:04:21;;;;;;;5.95;5.32;;;17.30;99.90;;;;;;2095958;28;20398;-69
2022/06/23 02:05:45;;;;;;;6.20;5.60;;;17.30;99.90;;;;;;2096014;28;20024;-69
2022/06/23 02:06:53;;;;;;;7.32;6.20;;;17.30;99.90;;;;;;2095235;28;20534;-69
2022/06/23 02:08:36;;;;;;;6.40;5.75;;;17.30;99.90;;;;;;2095347;28;20017;-69
2022/06/23 02:09:47;;;;;;;6.57;5.90;;;17.30;99.90;;;;;;2081351;28;20469;-69
2022/06/23 02:10:52;;;;;;;6.45;5.80;;;17.30;99.90;;;;;;2095150;28;20538;-69
2022/06/23 02:11:53;;;;;;;6.18;5.57;;;17.20;99.90;;;;;;2095426;28;20104;-69
2022/06/23 02:13:07;;;;;;;6.82;5.85;;;17.20;99.90;;;;;;2095908;28;20063;-69
2022/06/23 02:14:33;;;;;;;7.28;5.57;;;17.20;99.90;;;;;;2095803;28;20098;-69
2022/06/23 02:15:49;;;;;;;6.30;5.70;;;17.20;99.90;;;;;;2086854;28;20180;-70
2022/06/23 02:16:56;;;;;;;7.93;6.10;;;17.20;99.90;;;;;;2089129;28;20108;-69
2022/06/23 02:18:19;;;;;;;5.95;5.43;;;17.20;99.90;;;;;;2095124;28;20041;-69
2022/06/23 02:19:44;;;;;;;6.38;5.63;;;17.20;99.90;;;;;;2095254;28;20467;-69
2022/06/23 02:20:56;;;;;;;5.80;5.30;;;17.20;99.90;;;;;;2095003;28;20028;-69
2022/06/23 02:22:15;;;;;;;7.07;5.72;;;17.10;99.90;;;;;;2095241;28;20069;-69
2022/06/23 02:23:32;;;;;;;6.70;5.90;;;17.20;99.90;;;;;;2095691;28;20021;-69
2022/06/23 02:24:49;;;;;;;7.03;5.97;;;17.10;99.90;;;;;;2095588;28;20032;-69
2022/06/23 02:25:59;;;;;;;8.88;5.70;;;17.10;99.90;;;;;;2095734;28;20027;-69
2022/06/23 02:27:26;;;;;;;8.23;5.85;;;17.10;99.90;;;;;;2092400;28;20021;-69
2022/06/23 02:28:44;;;;;;;6.35;5.85;;;17.10;99.90;;;;;;2087300;28;20795;-69
2022/06/23 02:30:28;;;;;;;6.78;5.70;;;17.00;99.90;;;;;;2087493;28;20395;-69
2022/06/23 02:32:02;;;;;;;6.53;5.93;;;17.00;99.90;;;;;;2093675;28;20028;-69
2022/06/23 02:33:27;;;;;;;7.28;6.07;;;17.00;99.90;;;;;;2097280;28;20109;-69
2022/06/23 02:34:36;;;;;;;9.68;6.20;;;17.00;99.90;;;;;;2096528;28;20105;-69
2022/06/23 02:36:15;;;;;;;7.15;6.43;;;17.00;99.90;;;;;;2096347;28;20390;-69
2022/06/23 02:37:53;;;;;;;8.25;6.20;;;17.00;99.90;;;;;;2097207;28;20044;-69
2022/06/23 02:38:57;;;;;;;7.15;5.93;;;16.90;99.90;;;;;;2096196;28;20086;-69
2022/06/23 02:39:59;;;;;;;7.82;6.10;;;16.90;99.90;;;;;;2088614;28;20104;-68
2022/06/23 02:41:05;;;;;;;7.07;6.38;;;16.90;99.90;;;;;;2096736;28;20028;-70
2022/06/23 02:42:23;;;;;;;7.80;6.13;;;16.90;99.90;;;;;;2097650;28;20025;-70
2022/06/23 02:43:36;;;;;;;10.02;7.57;;;16.90;99.90;;;;;;2097695;28;20051;-69
2022/06/23 02:44:49;;;;;;;9.27;7.00;;;16.90;99.90;;;;;;2097891;28;20027;-69
2022/06/23 02:46:22;;;;;;;10.02;6.63;;;16.80;99.90;;;;;;2097522;28;20082;-69
2022/06/23 02:47:54;;;;;;;7.68;6.30;;;16.90;99.90;;;;;;2079726;28;20060;-69
2022/06/23 02:49:29;;;;;;;7.20;6.38;;;16.80;99.90;;;;;;2063041;28;20045;-69
2022/06/23 02:50:44;;;;;;;8.18;6.28;;;16.80;99.90;;;;;;2097199;28;20033;-68
2022/06/23 02:51:48;;;;;;;7.75;6.30;;;16.80;99.90;;;;;;2097241;28;20078;-69
2022/06/23 02:53:13;;;;;;;7.85;6.28;;;16.70;99.90;;;;;;2096907;28;20119;-68
2022/06/23 02:54:32;;;;;;;6.97;6.28;;;16.70;99.90;;;;;;2097177;28;20036;-69
2022/06/23 02:55:53;;;;;;;6.85;6.15;;;16.70;99.90;;;;;;2097069;28;20454;-68
2022/06/23 02:56:53;;;;;;;9.00;6.82;;;16.70;99.90;;;;;;2096671;28;20504;-69
2022/06/23 02:58:22;;;;;;;7.03;6.32;;;16.70;99.90;;;;;;2096453;28;20028;-68
2022/06/23 02:59:56;;;;;;;7.40;6.50;;;16.60;99.90;;;;;;2097088;28;20043;-68
2022/06/23 03:01:01;;;;;;;9.05;6.90;;;16.60;99.90;;;;;;2096278;28;20119;-68
2022/06/23 03:02:10;;;;;;;8.02;6.90;;;16.60;99.90;;;;;;2097107;28;20032;-68
2022/06/23 03:03:19;;;;;;;7.97;6.90;;;16.60;99.90;;;;;;2096370;28;20032;-69
2022/06/23 03:04:32;;;;;;;7.80;6.80;;;16.60;99.90;;;;;;2096403;28;20078;-69
2022/06/23 03:05:32;;;;;;;8.77;6.82;;;16.60;99.90;;;;;;2097166;28;20020;-69
2022/06/23 03:07:01;;;;;;;7.40;6.60;;;16.60;99.90;;;;;;2096471;28;20036;-69
2022/06/23 03:08:17;;;;;;;8.88;7.35;;;16.60;99.90;;;;;;2091871;28;20037;-69
2022/06/23 03:09:26;;;;;;;7.90;6.90;;;16.60;99.90;;;;;;2089787;28;20139;-69
2022/06/23 03:10:37;;;;;;;7.93;7.22;;;16.50;99.90;;;;;;2096545;28;20546;-69
2022/06/23 03:11:54;;;;;;;8.60;6.82;;;16.50;99.90;;;;;;2097292;28;20009;-69
2022/06/23 03:13:08;;;;;;;8.00;7.20;;;16.50;99.90;;;;;;2096845;28;20040;-69
2022/06/23 03:14:20;;;;;;;7.93;7.03;;;16.50;99.90;;;;;;2097056;28;20028;-69
2022/06/23 03:15:24;;;;;;;8.13;7.30;;;16.50;99.90;;;;;;2097729;28;20048;-69
2022/06/23 03:16:30;;;;;;;7.88;7.07;;;16.40;99.90;;;;;;2097301;28;20028;-69
2022/06/23 03:17:33;;;;;;;8.25;6.90;;;16.50;99.90;;;;;;2097480;28;20044;-69
2022/06/23 03:18:56;;;;;;;7.72;6.90;;;16.50;99.90;;;;;;2097174;28;20028;-69
2022/06/23 03:20:02;;;;;;;9.52;7.07;;;16.50;99.90;;;;;;2098012;28;20036;-69
2022/06/23 03:21:07;;;;;;;8.00;7.20;;;16.50;99.90;;;;;;2097709;28;20111;-69
2022/06/23 03:22:23;;;;;;;7.97;7.18;;;16.50;99.90;;;;;;2097201;28;20025;-69
2022/06/23 03:24:08;;;;;;;8.25;7.05;;;16.50;99.90;;;;;;2097866;28;20033;-69
2022/06/23 03:25:24;;;;;;;8.32;7.53;;;16.50;99.90;;;;;;2083914;28;20033;-69
2022/06/23 03:26:37;;;;;;;8.63;7.22;;;16.50;99.90;;;;;;2097730;28;20116;-69
2022/06/23 03:28:12;;;;;;;10.35;7.25;;;16.50;99.90;;;;;;2098062;28;20101;-69
2022/06/23 03:29:33;;;;;;;11.18;7.60;;;16.50;99.90;;;;;;2102164;28;20114;-69
2022/06/23 03:30:48;;;;;;;7.65;6.95;;;16.50;99.90;;;;;;2102904;28;20016;-69
2022/06/23 03:32:08;;;;;;;9.50;7.50;;;16.50;99.90;;;;;;2097618;28;20028;-69
2022/06/23 03:33:36;;;;;;;8.35;7.55;;;16.50;99.90;;;;;;2089944;28;20039;-68
2022/06/23 03:35:11;;;;;;;8.23;7.43;;;16.50;99.90;;;;;;2080417;28;20030;-68
2022/06/23 03:36:24;;;;;;;8.32;7.53;;;16.60;99.90;;;;;;2070455;28;20038;-70
2022/06/23 03:37:46;;;;;;;8.50;7.70;;;16.60;99.90;;;;;;2080668;28;20123;-70
2022/06/23 03:42:25;;;;;;;8.90;7.93;;;16.60;99.90;;;;;;2079679;28;20341;-69
2022/06/23 03:43:32;;;;;;;8.93;8.02;;;16.60;99.90;;;;;;2074164;28;20026;-69
2022/06/23 03:44:43;;;;;;;8.88;7.97;;;16.70;99.90;;;;;;2072025;28;20612;-69
2022/06/23 03:46:10;;;;;;;9.15;7.90;;;16.70;99.90;;;;;;2079945;28;20041;-69
2022/06/23 03:47:21;;;;;;;9.30;8.27;;;16.70;99.90;;;;;;2077308;28;20034;-69
2022/06/23 03:48:44;;;;;;;10.23;7.88;;;16.70;99.90;;;;;;2080070;28;20091;-69
2022/06/23 03:50:01;;;;;;;8.48;7.50;;;16.80;99.90;;;;;;2080657;28;20025;-69
2022/06/23 03:51:13;;;;;;;10.07;7.80;;;16.80;99.90;;;;;;2080716;28;20065;-69
2022/06/23 03:52:41;;;;;;;10.52;7.93;;;16.80;99.90;;;;;;2079947;28;20467;-69
2022/06/23 03:53:48;;;;;;;9.35;8.07;;;16.90;99.90;;;;;;2079973;28;20419;-69
2022/06/23 03:55:13;;;;;;;9.98;8.00;;;16.90;99.90;;;;;;2080494;28;20022;-70
2022/06/23 03:56:27;;;;;;;9.52;8.10;;;16.90;99.90;;;;;;2085237;28;20043;-70
2022/06/23 03:57:42;;;;;;;10.45;8.25;;;17.00;99.90;;;;;;2080560;28;20021;-69
2022/06/23 03:59:00;;;;;;;9.25;8.00;;;17.00;99.90;;;;;;2086326;28;20448;-69
2022/06/23 04:00:18;;;;;;;10.82;7.93;;;17.00;99.90;;;;;;2081822;28;20446;-70
2022/06/23 04:01:32;;;;;;;8.85;7.95;;;17.10;99.90;;;;;;2087974;28;20025;-69
2022/06/23 04:02:40;;;;;;;8.85;7.85;;;17.10;99.90;;;;;;2087430;28;20427;-69
2022/06/23 04:03:47;;;;;;;9.65;8.00;;;17.20;99.90;;;;;;2087865;28;20724;-69
2022/06/23 04:05:00;;;;;;;8.57;7.28;;;17.40;99.90;;;;;;2079268;28;20032;-70
2022/06/23 04:06:31;;;;;;;7.47;6.78;;;17.60;99.90;;;;;;2074626;28;20026;-69
2022/06/23 04:07:58;;;;;;;7.75;6.70;;;18.20;99.90;;;;;;2087966;28;20502;-70
2022/06/23 04:09:32;;;;;;;6.72;5.93;;;18.90;99.90;;;;;;2083029;28;20048;-69
2022/06/23 04:10:40;;;;;;;9.65;5.70;;;19.50;99.90;;;;;;2088031;28;20118;-70
2022/06/23 04:12:07;;;;;;;8.38;6.10;;;20.00;99.90;;;;;;2087486;28;20029;-70
2022/06/23 04:13:21;;;;;;;6.03;5.40;;;20.50;99.90;;;;;;2079199;28;20048;-69
2022/06/23 04:14:27;;;;;;;6.72;5.45;;;20.90;99.50;;;;;;2081168;28;20606;-69
2022/06/23 04:15:39;;;;;;;7.25;5.60;;;21.20;98.00;;;;;;2087391;28;20033;-70
2022/06/23 04:16:43;;;;;;;8.07;5.45;;;21.50;96.60;;;;;;2087706;28;20809;-70
2022/06/23 04:17:54;;;;;;;7.85;5.93;;;21.70;95.30;;;;;;2088265;28;20031;-71
2022/06/23 04:18:55;;;;;;;7.90;5.20;;;22.00;94.40;;;;;;2087917;28;20033;-70
2022/06/23 04:20:16;;;;;;;5.90;5.30;;;22.30;93.40;;;;;;2079267;28;20029;-70
2022/06/23 04:21:22;;;;;;;6.82;5.53;;;22.60;92.00;;;;;;2073659;28;20602;-71
2022/06/23 04:22:41;;;;;;;6.28;5.60;;;22.80;91.20;;;;;;2080847;28;20399;-70
2022/06/23 04:23:50;;;;;;;6.10;5.50;;;23.00;90.10;;;;;;2087534;28;20647;-70
2022/06/23 04:24:55;;;;;;;5.97;5.45;;;23.20;88.20;;;;;;2072085;28;20125;-71
2022/06/23 04:26:16;;;;;;;6.65;5.07;;;23.40;87.00;;;;;;2079906;28;20041;-70
2022/06/23 04:27:23;;;;;;;5.68;5.07;;;23.60;85.10;;;;;;2088213;28;20045;-70
2022/06/23 04:28:30;;;;;;;6.15;5.40;;;23.80;83.10;;;;;;2087088;28;20029;-70
2022/06/23 04:29:36;;;;;;;6.80;5.07;;;24.00;82.00;;;;;;2087713;28;20051;-71
2022/06/23 04:30:40;;;;;;;8.63;5.53;;;24.20;80.60;;;;;;2088173;28;20032;-70
2022/06/23 04:31:48;;;;;;;9.10;6.22;;;24.30;78.80;;;;;;2095046;28;20025;-70
2022/06/23 04:32:50;;;;;;;8.50;6.00;;;24.30;77.20;;;;;;2096498;28;20040;-70
2022/06/23 04:33:53;;;;;;;10.88;6.63;;;24.40;76.20;;;;;;2088808;28;20029;-70
2022/06/23 04:34:59;;;;;;;8.57;6.05;;;24.50;75.20;;;;;;2087588;28;20020;-70
2022/06/23 04:36:00;;;;;;;6.93;5.72;;;24.60;74.80;;;;;;2088141;28;20041;-71
2022/06/23 04:37:02;;;;;;;6.38;5.78;;;24.80;73.60;;;;;;2088111;28;20028;-70
2022/06/23 04:38:25;;;;;;;7.97;5.90;;;24.80;72.70;;;;;;2087994;28;20139;-70
2022/06/23 04:39:35;;;;;;;7.18;5.60;;;24.90;72.30;;;;;;2088023;28;20025;-70
2022/06/23 04:40:48;;;;;;;7.50;5.53;;;24.90;71.80;;;;;;2088967;28;20070;-69
2022/06/23 04:42:21;;;;;;;7.88;5.78;;;25.20;71.00;;;;;;2096093;28;20074;-70
2022/06/23 04:43:47;;;;;;;8.57;5.95;;;25.30;70.00;;;;;;2091321;28;20032;-70
2022/06/23 04:44:54;;;;;;;10.93;5.80;;;25.40;69.10;;;;;;2079046;28;20345;-69
2022/06/23 04:46:12;;;;;;;11.93;5.90;;;25.50;68.30;;;;;;2071916;28;20128;-69
2022/06/23 04:47:21;;;;;;;11.82;6.15;;;25.70;67.80;;;;;;2079336;28;20041;-70
2022/06/23 04:48:39;;;;;;;11.57;6.32;;;25.90;67.30;;;;;;2070750;28;20474;-69
2022/06/23 04:49:46;;;;;;;11.07;6.20;;;25.90;66.70;;;;;;2073386;28;20657;-69
2022/06/23 04:50:59;;;;;;;8.00;6.13;;;26.00;66.10;;;;;;2079888;28;20033;-70
2022/06/23 04:52:04;;;;;;;6.63;6.03;;;26.00;65.70;;;;;;2083476;28;20057;-69
2022/06/23 04:53:05;;;;;;;6.57;5.85;;;26.10;65.30;;;;;;2079838;28;20029;-69
2022/06/23 04:54:20;;;;;;;6.43;5.82;;;26.20;65.10;;;;;;2087357;28;20037;-69
2022/06/23 04:55:26;;;;;;;8.65;5.90;;;26.30;64.40;;;;;;2086415;28;20067;-69
2022/06/23 04:56:46;;;;;;;6.95;5.97;;;26.30;64.00;;;;;;2079502;28;20131;-68
2022/06/23 04:58:04;;;;;;;6.93;5.60;;;26.30;63.10;;;;;;2087648;28;20426;-69
2022/06/23 04:59:23;;;;;;;7.82;6.28;;;26.40;63.00;;;;;;2086956;28;20037;-69
2022/06/23 05:00:37;;;;;;;8.35;6.15;;;26.30;62.00;;;;;;2087327;28;20407;-69
2022/06/23 05:01:41;;;;;;;8.85;6.00;;;26.10;62.20;;;;;;2087820;28;20017;-69
2022/06/23 05:02:51;;;;;;;11.48;6.32;;;26.00;62.30;;;;;;2087217;28;20028;-68
2022/06/23 05:03:57;;;;;;;7.75;5.97;;;25.90;61.70;;;;;;2080227;28;20049;-69
2022/06/23 05:05:07;;;;;;;6.35;5.60;;;25.80;62.50;;;;;;2087030;28;20021;-69
2022/06/23 05:06:33;;;;;;;6.40;5.80;;;25.90;62.70;;;;;;2087835;28;20086;-69
2022/06/23 05:07:42;;;;;;;7.32;5.50;;;26.00;62.20;;;;;;2087889;28;20810;-69
2022/06/23 05:08:45;;;;;;;6.80;5.65;;;26.20;62.00;;;;;;2087483;28;20028;-70
2022/06/23 05:09:49;;;;;;;8.45;6.60;;;26.40;61.70;;;;;;2087723;28;20033;-70
2022/06/23 05:11:09;;;;;;;8.10;5.75;;;26.50;61.30;;;;;;2087696;28;20116;-71
2022/06/23 05:12:28;;;;;;;7.55;5.70;;;26.60;61.60;;;;;;2087712;28;20025;-69
2022/06/23 05:13:36;;;;;;;5.97;5.40;;;26.80;59.70;;;;;;2088030;28;20037;-70
2022/06/23 05:14:51;;;;;;;7.90;5.28;;;26.90;59.30;;;;;;2088035;28;20039;-71
2022/06/23 05:16:05;;;;;;;8.50;6.15;;;27.00;59.10;;;;;;2087947;28;20040;-71
2022/06/23 05:17:19;;;;;;;9.63;5.65;;;27.00;59.20;;;;;;2087267;28;20519;-71
2022/06/23 05:18:27;;;;;;;6.03;5.45;;;27.00;59.10;;;;;;2087129;28;20028;-72
2022/06/23 05:19:32;;;;;;;6.68;5.53;;;27.10;58.90;;;;;;2087880;28;20530;-72
2022/06/23 05:20:46;;;;;;;8.20;5.70;;;27.30;58.60;;;;;;2087692;28;20099;-70
2022/06/23 05:21:56;;;;;;;10.60;5.38;;;27.30;58.10;;;;;;2086821;28;20124;-69
2022/06/23 05:22:57;;;;;;;7.88;5.60;;;27.40;58.10;;;;;;2087110;28;20028;-70
2022/06/23 05:24:02;;;;;;;7.53;5.93;;;27.30;57.90;;;;;;2087770;28;20116;-69
2022/06/23 05:25:36;;;;;;;11.80;5.80;;;27.00;58.10;;;;;;2086923;28;20024;-69
2022/06/23 05:26:43;;;;;;;8.18;5.97;;;26.90;58.80;;;;;;2078848;28;20036;-69
2022/06/23 05:27:47;;;;;;;7.13;6.43;;;26.80;59.00;;;;;;2078975;28;20072;-69
2022/06/23 05:29:00;;;;;;;7.93;5.35;;;26.60;59.00;;;;;;2079175;28;20039;-70
2022/06/23 05:30:31;;;;;;;11.55;5.70;;;26.50;59.30;;;;;;2079150;28;20029;-70
2022/06/23 05:31:35;;;;;;;8.40;5.90;;;26.40;58.80;;;;;;2085373;28;20025;-69
2022/06/23 05:32:45;;;;;;;7.85;6.10;;;26.50;58.70;;;;;;2079426;28;20512;-69
2022/06/23 05:33:50;;;;;;;8.40;5.70;;;26.40;59.00;;;;;;2087530;28;20045;-70
2022/06/23 05:34:55;;;;;;;8.57;6.45;;;26.50;59.10;;;;;;2087932;28;20037;-71
2022/06/23 05:36:05;;;;;;;8.10;5.97;;;26.50;58.60;;;;;;2088081;28;20123;-69
2022/06/23 05:37:12;;;;;;;;;;;26.40;57.90;;;;;;2088523;28;20061;-70
2022/06/23 05:38:22;;;;;;;6.43;5.53;;;26.40;57.90;;;;;;2087989;28;19908;-72
2022/06/23 05:40:08;;;;;;;10.95;7.75;;;26.70;57.20;;;;;;2088080;28;20040;-69
2022/06/23 05:41:30;;;;;;;7.20;6.38;;;26.90;56.10;;;;;;2085623;28;20041;-70
2022/06/23 05:42:32;;;;;;;6.68;5.68;;;27.00;55.70;;;;;;2087172;28;20029;-71
2022/06/23 05:43:40;;;;;;;8.18;5.60;;;27.30;55.80;;;;;;2087459;28;20483;-71
2022/06/23 05:44:51;;;;;;;8.30;5.10;;;27.30;55.70;;;;;;2094801;28;20020;-71
2022/06/23 05:45:53;;;;;;;;;;;27.20;55.20;;;;;;2088681;28;20858;-73
2022/06/23 05:46:57;;;;;;;7.10;5.15;;;27.20;55.10;;;;;;2078961;28;20398;-70
2022/06/23 05:48:00;;;;;;;6.82;5.30;;;27.30;55.10;;;;;;2071915;28;20401;-69
2022/06/23 05:49:25;;;;;;;8.30;5.30;;;27.30;54.90;;;;;;2086804;28;20748;-69
2022/06/23 05:50:45;;;;;;;8.00;6.10;;;27.40;55.00;;;;;;2087868;28;20128;-69
2022/06/23 05:51:59;;;;;;;7.70;5.50;;;27.30;55.10;;;;;;2088173;28;20029;-69
2022/06/23 05:53:04;;;;;;;6.93;5.47;;;27.20;55.30;;;;;;2088260;28;20387;-70
2022/06/23 05:54:11;;;;;;;8.73;6.10;;;27.10;55.70;;;;;;2088057;28;20049;-69
2022/06/23 05:55:39;;;;;;;8.23;5.50;;;27.00;55.60;;;;;;2087950;28;20057;-67
2022/06/23 05:56:50;;;;;;;8.02;5.85;;;26.90;55.60;;;;;;2080973;28;20143;-69
2022/06/23 05:58:09;;;;;;;8.73;5.40;;;27.00;55.60;;;;;;2072443;28;20770;-69
2022/06/23 05:59:21;;;;;;;8.88;5.70;;;27.10;55.60;;;;;;2081668;28;20045;-69
2022/06/23 06:00:37;;;;;;;8.90;6.28;;;27.10;55.70;;;;;;2087857;28;20028;-69
2022/06/23 06:02:01;;;;;;;9.45;5.70;;;27.00;55.80;;;;;;2087669;28;20040;-70
2022/06/23 06:03:36;;;;;;;9.13;5.43;;;27.10;55.90;;;;;;2087962;28;20036;-70
2022/06/23 06:04:54;;;;;;;7.72;5.28;;;27.20;55.80;;;;;;2070243;28;20033;-68
2022/06/23 06:05:58;;;;;;;8.02;5.22;;;27.30;55.20;;;;;;2088036;28;20407;-70
2022/06/23 06:06:59;;;;;;;10.25;5.50;;;27.40;55.00;;;;;;2088727;28;20067;-69
2022/06/23 06:08:04;;;;;;;7.95;5.10;;;27.40;54.60;;;;;;2089671;28;20025;-70
2022/06/23 06:10:30;;;;;;;7.05;5.05;;;27.50;54.40;;;;;;2089449;28;20029;-70
2022/06/23 06:11:33;;;;;;;7.30;5.00;;;27.60;54.20;;;;;;2089429;28;20020;-69
2022/06/23 06:12:37;;;;;;;6.80;4.95;;;27.60;54.00;;;;;;2089266;28;20106;-71
2022/06/23 06:13:38;;;;;;;7.22;5.18;;;27.80;53.90;;;;;;2089398;28;20053;-69
2022/06/23 06:14:44;;;;;;;7.32;5.53;;;27.90;53.70;;;;;;2089564;28;20032;-70
2022/06/23 06:15:49;;;;;;;6.97;5.30;;;28.00;53.20;;;;;;2089448;28;20052;-70
2022/06/23 06:16:52;;;;;;;6.45;5.50;;;28.00;53.00;;;;;;2088890;28;20040;-69
2022/06/23 06:18:02;;;;;;;5.93;4.93;;;28.10;53.00;;;;;;2084417;28;20033;-69
2022/06/23 06:19:04;;;;;;;6.85;5.18;;;28.10;52.90;;;;;;2096829;28;20059;-69
2022/06/23 06:20:08;;;;;;;6.13;5.53;;;28.10;52.80;;;;;;2097028;28;20056;-69
2022/06/23 06:21:12;;;;;;;6.75;5.20;;;28.10;52.90;;;;;;2089141;28;20398;-70
2022/06/23 06:22:51;;;;;;;12.02;6.03;;;28.00;53.20;;;;;;2097201;28;20067;-68
2022/06/23 06:23:58;;;;;;;9.75;5.55;;;27.80;53.30;;;;;;2098190;28;20029;-68
2022/06/23 06:25:02;;;;;;;6.55;5.63;;;27.70;53.60;;;;;;2098089;28;20077;-68
2022/06/23 06:26:04;;;;;;;8.00;5.72;;;27.50;53.80;;;;;;2098002;28;20021;-68
2022/06/23 06:27:11;;;;;;;8.25;5.18;;;27.10;54.20;;;;;;2089497;28;20029;-69